Time;durP1;ratioP1;P1;durP2;ratioP2;P2;SDS_P1;SDS_P2;PMS_P1;PMS_P2;Temp;Humidity;BMP_temperature;BMP_pressure;BME280_temperature;BME280_humidity;BME280_pressure;Samples;Min_cycle;Max_cycle;Signal;HPM_P1;HPM_P2
2023/01/11 00:00:05;;;;;;;36.85;23.35;;;;;;;3.74;100.00;100020.34;5054182;28;20536;-77
2023/01/11 00:02:31;;;;;;;40.47;25.83;;;;;;;3.71;100.00;100022.97;5054139;28;20030;-77
2023/01/11 00:04:56;;;;;;;35.17;23.35;;;;;;;3.74;100.00;100025.50;5054298;28;20453;-77
2023/01/11 00:07:22;;;;;;;46.08;29.95;;;;;;;3.64;100.00;100022.19;5054436;28;20040;-77
2023/01/11 00:09:48;;;;;;;48.25;31.80;;;;;;;3.63;100.00;100025.66;5054081;28;20368;-77
2023/01/11 00:12:13;;;;;;;45.70;30.48;;;;;;;3.59;100.00;100017.97;5054109;28;20107;-77
2023/01/11 00:14:39;;;;;;;43.92;27.38;;;;;;;3.64;100.00;100029.06;5053803;28;20079;-77
2023/01/11 00:17:04;;;;;;;44.42;24.67;;;;;;;3.59;100.00;100023.97;5054080;28;20036;-77
2023/01/11 00:19:30;;;;;;;42.92;26.17;;;;;;;3.55;100.00;100018.88;5054120;28;20045;-77
2023/01/11 00:21:55;;;;;;;37.08;25.15;;;;;;;3.47;100.00;100018.97;5053874;28;20048;-77
2023/01/11 00:24:20;;;;;;;36.85;23.02;;;;;;;3.29;100.00;100007.16;5053958;28;20021;-77
2023/01/11 00:26:46;;;;;;;36.78;24.55;;;;;;;3.25;100.00;100019.22;5053613;28;20078;-77
2023/01/11 00:29:11;;;;;;;41.58;25.63;;;;;;;3.11;100.00;100020.22;5054011;28;20017;-77
2023/01/11 00:31:36;;;;;;;41.70;24.63;;;;;;;3.05;100.00;100017.72;5053550;28;20159;-77
2023/01/11 00:34:02;;;;;;;60.45;33.72;;;;;;;2.89;100.00;100014.44;5053758;28;20146;-77
2023/01/11 00:36:27;;;;;;;54.30;32.25;;;;;;;2.79;100.00;100012.84;5053914;28;20031;-77
2023/01/11 00:38:54;;;;;;;56.25;31.33;;;;;;;2.73;100.00;100014.56;5053522;28;20025;-77
2023/01/11 00:49:34;;;;;;;85.70;40.58;;;;;;;2.44;100.00;100022.56;5053524;28;20035;-77
2023/01/11 00:52:00;;;;;;;109.18;46.70;;;;;;;2.31;100.00;100010.63;5053174;28;20108;-77
2023/01/11 00:54:25;;;;;;;54.72;30.38;;;;;;;2.24;100.00;100012.41;5053317;28;20025;-77
2023/01/11 00:56:51;;;;;;;44.90;24.55;;;;;;;2.12;100.00;99997.06;5053134;28;20028;-77
2023/01/11 00:59:16;;;;;;;41.00;25.25;;;;;;;2.18;100.00;100022.72;5053493;28;20021;-77
2023/01/11 01:01:42;;;;;;;39.88;23.95;;;;;;;2.11;100.00;100028.78;5053084;28;20028;-77
2023/01/11 01:04:07;;;;;;;68.03;34.97;;;;;;;2.00;100.00;100018.53;5053169;28;20017;-77
2023/01/11 01:06:32;;;;;;;131.45;55.53;;;;;;;1.99;100.00;100026.28;5053151;28;20032;-77
2023/01/11 01:08:58;;;;;;;85.50;42.78;;;;;;;1.83;100.00;100014.38;5052800;28;20291;-77
2023/01/11 01:11:23;;;;;;;80.75;41.08;;;;;;;1.79;100.00;100016.09;5052929;28;20029;-77
2023/01/11 01:16:33;;;;;;;58.65;32.45;;;;;;;1.69;100.00;100017.00;5053073;28;20107;-77
2023/01/11 01:18:59;;;;;;;56.92;29.38;;;;;;;1.60;100.00;100012.78;5052745;28;20025;-77
2023/01/11 01:21:26;;;;;;;45.67;27.15;;;;;;;1.63;100.00;100029.88;5052708;28;20031;-77
2023/01/11 01:23:54;;;;;;;67.50;33.97;;;;;;;1.52;100.00;100009.38;5052811;28;20040;-77
2023/01/11 01:26:20;;;;;;;74.15;37.20;;;;;;;1.44;100.00;100000.88;5052699;28;20032;-77
2023/01/11 01:28:46;;;;;;;152.70;66.53;;;;;;;1.44;100.00;100006.00;5052782;28;20090;-77
2023/01/11 01:31:12;;;;;;;84.95;43.10;;;;;;;1.39;100.00;100011.16;5052794;28;20024;-77
2023/01/11 01:33:37;;;;;;;88.45;43.17;;;;;;;1.33;100.00;100000.03;5052637;28;20013;-77
2023/01/11 01:36:03;;;;;;;139.20;63.20;;;;;;;1.21;100.00;99985.53;5052366;28;20104;-77
2023/01/11 01:38:29;;;;;;;103.80;50.05;;;;;;;1.24;100.00;99991.50;5052475;28;20369;-77
2023/01/11 01:40:55;;;;;;;72.68;36.00;;;;;;;1.26;100.00;99996.63;5052355;28;20025;-77
2023/01/11 01:43:22;;;;;;;66.55;34.40;;;;;;;1.10;100.00;99977.03;5051129;28;20048;-77
2023/01/11 01:45:51;;;;;;;60.10;32.70;;;;;;;1.21;100.00;99990.66;5051781;28;20020;-77
2023/01/11 01:48:20;;;;;;;70.55;34.03;;;;;;;1.12;100.00;99988.97;5052378;28;20361;-77
2023/01/11 01:50:52;;;;;;;67.68;35.47;;;;;;;1.15;100.00;99985.56;5052020;28;20102;-77
2023/01/11 01:53:22;;;;;;;71.45;38.05;;;;;;;1.04;100.00;99979.59;5052435;28;20029;-77
2023/01/11 01:55:52;;;;;;;62.72;33.75;;;;;;;1.05;100.00;99991.56;5052319;28;20511;-77
2023/01/11 01:58:20;;;;;;;61.72;34.10;;;;;;;1.02;100.00;99994.16;5052414;28;20091;-77
2023/01/11 02:00:46;;;;;;;74.40;38.05;;;;;;;0.86;100.00;99967.69;5051936;28;20095;-77
2023/01/11 02:03:17;;;;;;;61.55;31.27;;;;;;;0.96;100.00;99987.31;5052071;28;20104;-77
2023/01/11 02:05:43;;;;;;;56.17;28.98;;;;;;;0.82;100.00;99971.97;5052368;28;20032;-77
2023/01/11 02:08:18;;;;;;;46.20;27.60;;;;;;;0.88;100.00;99976.22;5052198;28;20017;-77
2023/01/11 02:10:43;;;;;;;54.97;30.40;;;;;;;0.82;100.00;99968.53;5051882;28;20017;-77
2023/01/11 02:13:11;;;;;;;67.82;33.17;;;;;;;0.77;100.00;99957.44;5052082;28;20070;-77
2023/01/11 02:15:36;;;;;;;55.13;28.88;;;;;;;0.69;100.00;99942.94;5051928;28;20039;-77
2023/01/11 02:18:02;;;;;;;48.38;27.58;;;;;;;0.78;100.00;99957.44;5051714;28;20410;-77
2023/01/11 02:20:30;;;;;;;59.10;35.08;;;;;;;0.83;100.00;99960.00;5051973;28;20028;-77
2023/01/11 02:23:01;;;;;;;54.03;33.45;;;;;;;0.81;100.00;99954.88;5051798;28;20064;-77
2023/01/11 02:26:04;;;;;;;40.17;24.13;;;;;;;0.84;100.00;99944.59;5051989;28;20021;-77
2023/01/11 02:28:49;;;;;;;38.95;23.42;;;;;;;0.81;100.00;99920.69;5052068;28;20099;-77
2023/01/11 02:31:30;;;;;;;43.22;23.73;;;;;;;0.90;100.00;99925.78;5051954;28;20535;-77
2023/01/11 02:34:10;;;;;;;29.15;17.60;;;;;;;0.96;100.00;99920.63;5051869;28;20079;-77
2023/01/11 02:37:15;;;;;;;22.60;13.75;;;;;;;1.02;100.00;99920.63;5051743;28;20360;-77
2023/01/11 02:39:49;;;;;;;16.05;9.85;;;;;;;1.09;100.00;99913.75;5051726;28;20102;-77
2023/01/11 02:45:36;;;;;;;14.50;8.07;;;;;;;1.20;100.00;99912.00;5051948;28;20094;-77
2023/01/11 02:48:48;;;;;;;15.68;9.05;;;;;;;1.25;100.00;99918.81;5051546;28;20032;-77
2023/01/11 02:51:26;;;;;;;14.52;8.75;;;;;;;1.31;100.00;99917.94;5029394;28;20037;-77
2023/01/11 02:54:04;;;;;;;19.67;9.30;;;;;;;1.24;100.00;99906.84;5029009;28;20037;-77
2023/01/11 02:56:35;;;;;;;19.15;9.40;;;;;;;1.26;100.00;99909.38;5029957;28;20167;-77
2023/01/11 02:59:02;;;;;;;13.40;8.95;;;;;;;1.21;100.00;99891.44;5016279;28;20146;-77
2023/01/11 03:01:28;;;;;;;17.73;8.57;;;;;;;1.28;100.00;99911.97;5033073;28;20029;-77
2023/01/11 03:03:54;;;;;;;14.73;9.40;;;;;;;1.15;100.00;99883.78;5032890;28;20480;-77
2023/01/11 03:06:23;;;;;;;13.45;8.18;;;;;;;1.19;100.00;99897.47;5033007;28;20112;-77
2023/01/11 03:09:22;;;;;;;19.33;8.23;;;;;;;1.27;100.00;99912.84;5032820;28;20092;-77
2023/01/11 03:15:24;;;;;;;19.30;8.88;;;;;;;1.15;100.00;99895.78;5033100;28;20560;-77
2023/01/11 03:17:58;;;;;;;11.07;7.28;;;;;;;1.20;100.00;99899.16;5032769;28;20385;-77
2023/01/11 03:20:38;;;;;;;13.77;8.02;;;;;;;1.14;100.00;99891.50;5032763;28;20061;-77
2023/01/11 03:23:32;;;;;;;13.00;6.45;;;;;;;1.21;100.00;99908.56;5032553;28;20401;-77
2023/01/11 03:26:17;;;;;;;15.15;8.10;;;;;;;1.18;100.00;99901.75;5052218;28;20037;-77
2023/01/11 03:29:04;;;;;;;12.63;6.90;;;;;;;1.20;100.00;99899.16;5032496;28;20173;-77
2023/01/11 03:31:38;;;;;;;14.38;7.78;;;;;;;1.21;100.00;99888.03;5032765;28;20041;-77
2023/01/11 03:34:18;;;;;;;13.05;7.00;;;;;;;1.20;100.00;99881.22;5032229;28;20030;-77
2023/01/11 03:36:55;;;;;;;16.02;8.07;;;;;;;1.17;100.00;99870.94;5032534;28;20116;-77
2023/01/11 03:39:29;;;;;;;14.50;8.43;;;;;;;1.20;100.00;99873.50;5015870;28;20412;-77
2023/01/11 03:41:59;;;;;;;16.05;8.55;;;;;;;1.13;100.00;99862.41;5031914;28;20069;-77
2023/01/11 03:44:30;;;;;;;15.57;7.70;;;;;;;1.14;100.00;99864.16;5032462;28;20025;-77
2023/01/11 03:47:01;;;;;;;11.30;7.22;;;;;;;1.08;100.00;99855.63;5032174;28;20038;-77
2023/01/11 03:49:32;;;;;;;10.20;6.93;;;;;;;1.07;100.00;99854.75;5032242;28;20025;-77
2023/01/11 03:52:01;;;;;;;15.45;8.68;;;;;;;1.05;100.00;99845.34;5032164;28;20500;-77
2023/01/11 03:54:29;;;;;;;13.30;8.75;;;;;;;1.06;100.00;99845.38;5032211;28;20033;-77
2023/01/11 03:57:19;;;;;;;16.73;9.05;;;;;;;1.13;100.00;99859.00;5031968;28;20099;-77
2023/01/11 03:59:45;;;;;;;18.92;9.00;;;;;;;1.11;100.00;99842.78;5032126;28;20069;-77
2023/01/11 04:02:17;;;;;;;16.17;8.43;;;;;;;1.06;100.00;99845.38;5031734;28;20061;-77
2023/01/11 04:04:42;;;;;;;17.25;9.20;;;;;;;1.06;100.00;99850.50;5032776;28;20095;-77
2023/01/11 04:07:07;;;;;;;14.20;9.10;;;;;;;1.00;100.00;99835.13;5053613;28;20025;-77
2023/01/11 04:09:33;;;;;;;14.32;9.57;;;;;;;0.89;100.00;99826.66;5054273;28;20021;-77
2023/01/11 04:11:58;;;;;;;16.88;10.43;;;;;;;0.96;100.00;99833.44;5054430;28;20036;-77
2023/01/11 04:14:23;;;;;;;16.60;9.73;;;;;;;1.01;100.00;99844.50;5054475;28;20020;-77
2023/01/11 04:16:48;;;;;;;16.90;10.07;;;;;;;0.96;100.00;99833.44;5053859;28;20020;-77
2023/01/11 04:19:14;;;;;;;15.05;9.52;;;;;;;0.99;100.00;99839.41;5054323;28;20029;-77
2023/01/11 04:21:39;;;;;;;19.58;9.55;;;;;;;0.85;100.00;99814.69;5054072;28;20032;-77
2023/01/11 04:24:05;;;;;;;15.20;9.63;;;;;;;0.92;100.00;99824.91;5053929;28;20017;-77
2023/01/11 04:26:30;;;;;;;17.73;9.88;;;;;;;0.96;100.00;99828.31;5054308;28;20029;-77
2023/01/11 04:28:55;;;;;;;17.70;10.95;;;;;;;0.89;100.00;99827.50;5053668;28;20052;-77
2023/01/11 04:31:21;;;;;;;19.92;11.25;;;;;;;0.86;100.00;99813.84;5053856;28;20031;-77
2023/01/11 04:33:46;;;;;;;16.83;10.93;;;;;;;0.92;100.00;99824.06;5054006;28;20028;-77
2023/01/11 04:36:11;;;;;;;19.60;11.23;;;;;;;0.89;100.00;99812.13;5053690;28;20158;-77
2023/01/11 04:38:37;;;;;;;20.02;12.13;;;;;;;0.91;100.00;99812.94;5053816;28;20116;-77
2023/01/11 04:43:47;;;;;;;21.35;11.43;;;;;;;0.84;100.00;99802.72;5053844;28;20031;-77
2023/01/11 04:46:12;;;;;;;19.77;13.80;;;;;;;0.87;100.00;99803.56;5053558;28;20024;-77
2023/01/11 04:48:39;;;;;;;17.95;12.18;;;;;;;0.88;100.00;99814.66;5053988;28;20056;-77
2023/01/11 04:51:08;;;;;;;20.05;12.85;;;;;;;0.87;100.00;99807.84;5053366;28;20024;-77
2023/01/11 04:53:34;;;;;;;20.55;12.55;;;;;;;0.87;100.00;99798.44;5053178;28;20056;-77
2023/01/11 04:56:01;;;;;;;18.70;11.73;;;;;;;0.90;100.00;99789.88;5052957;28;20024;-77
2023/01/11 04:58:28;;;;;;;15.70;10.93;;;;;;;0.95;100.00;99778.72;5052966;28;20094;-77
2023/01/11 05:00:54;;;;;;;18.55;11.57;;;;;;;0.95;100.00;99771.03;5053134;28;20508;-77
2023/01/11 05:03:19;;;;;;;21.17;11.55;;;;;;;0.92;100.00;99771.03;5053356;28;20031;-77
2023/01/11 05:05:56;;;;;;;20.05;12.57;;;;;;;0.97;100.00;99774.47;5053277;28;20021;-77
2023/01/11 05:08:23;;;;;;;18.02;11.55;;;;;;;0.96;100.00;99775.28;5053532;28;20032;-77
2023/01/11 05:10:52;;;;;;;20.88;11.68;;;;;;;0.94;100.00;99758.22;5053060;28;20021;-77
2023/01/11 05:13:18;;;;;;;19.10;11.05;;;;;;;0.94;100.00;99768.50;5053021;28;20025;-77
2023/01/11 05:15:44;;;;;;;20.40;12.38;;;;;;;0.97;100.00;99769.34;5052983;28;20063;-77
2023/01/11 05:18:09;;;;;;;20.13;11.45;;;;;;;0.99;100.00;99761.63;5052932;28;20841;-77
2023/01/11 05:20:34;;;;;;;23.02;11.73;;;;;;;0.98;100.00;99757.34;5052181;28;20066;-77
2023/01/11 05:22:59;;;;;;;19.02;12.05;;;;;;;1.02;100.00;99758.19;5052641;28;20024;-77
2023/01/11 05:25:25;;;;;;;17.73;11.27;;;;;;;1.02;100.00;99747.94;5052586;28;20341;-77
2023/01/11 05:27:50;;;;;;;13.88;10.15;;;;;;;1.07;100.00;99746.19;5052766;28;20053;-77
2023/01/11 05:30:16;;;;;;;14.52;9.73;;;;;;;0.98;100.00;99732.56;5052637;28;20106;-77
2023/01/11 05:32:41;;;;;;;18.52;11.05;;;;;;;0.97;100.00;99735.16;5052850;28;20029;-77
2023/01/11 05:35:09;;;;;;;14.88;9.50;;;;;;;0.96;100.00;99735.97;5052527;28;20024;-77
2023/01/11 05:37:35;;;;;;;17.38;10.82;;;;;;;1.02;100.00;99750.50;5052669;28;20453;-77
2023/01/11 05:40:01;;;;;;;18.13;10.52;;;;;;;1.02;100.00;99747.94;5052479;28;20017;-77
2023/01/11 05:42:26;;;;;;;18.02;10.80;;;;;;;1.02;100.00;99745.38;5052740;28;20160;-77
2023/01/11 05:47:35;;;;;;;16.27;9.57;;;;;;;1.02;100.00;99756.47;5052398;28;20091;-77
2023/01/11 05:50:00;;;;;;;14.95;10.57;;;;;;;1.00;100.00;99748.78;5052415;28;20017;-77
2023/01/11 05:52:26;;;;;;;15.38;9.98;;;;;;;1.00;100.00;99745.34;5052117;28;20445;-77
2023/01/11 05:54:51;;;;;;;14.48;9.18;;;;;;;0.99;100.00;99741.09;5052708;28;20028;-77
2023/01/11 05:57:16;;;;;;;22.42;10.15;;;;;;;0.89;100.00;99721.53;5052147;28;20020;-77
2023/01/11 05:59:42;;;;;;;15.20;9.13;;;;;;;0.99;100.00;99743.66;5052262;28;20048;-77
2023/01/11 06:02:07;;;;;;;17.75;9.07;;;;;;;0.92;100.00;99732.56;5052019;28;20025;-77
2023/01/11 06:04:32;;;;;;;14.27;8.77;;;;;;;0.92;100.00;99724.88;5052271;28;20045;-77
2023/01/11 06:06:58;;;;;;;15.57;9.27;;;;;;;0.91;100.00;99727.47;5051780;28;20365;-77
2023/01/11 06:09:23;;;;;;;11.15;8.20;;;;;;;0.88;100.00;99719.78;5052218;28;20024;-77
2023/01/11 06:11:49;;;;;;;19.48;8.32;;;;;;;0.97;100.00;99733.44;5051912;28;20031;-77
2023/01/11 06:14:14;;;;;;;13.85;9.00;;;;;;;0.96;100.00;99729.13;5051848;28;20100;-77
2023/01/11 06:16:40;;;;;;;16.30;10.13;;;;;;;0.92;100.00;99729.16;5052068;28;20032;-77
2023/01/11 06:19:05;;;;;;;16.08;9.70;;;;;;;0.96;100.00;99728.28;5051732;28;20021;-77
2023/01/11 06:21:30;;;;;;;14.98;10.20;;;;;;;0.98;100.00;99718.88;5051807;28;20056;-77
2023/01/11 06:23:56;;;;;;;12.77;9.65;;;;;;;0.93;100.00;99718.06;5051892;28;20028;-77
2023/01/11 06:26:22;;;;;;;18.60;10.45;;;;;;;0.87;100.00;99708.69;5052058;28;20028;-77
2023/01/11 06:28:48;;;;;;;17.65;10.35;;;;;;;0.87;100.00;99700.16;5051993;28;20021;-77
2023/01/11 06:31:15;;;;;;;16.02;9.85;;;;;;;0.88;100.00;99707.81;5051637;28;20029;-77
2023/01/11 06:33:40;;;;;;;17.85;9.48;;;;;;;0.93;100.00;99715.50;5051815;28;20337;-77
2023/01/11 06:36:08;;;;;;;18.67;10.80;;;;;;;0.91;100.00;99709.53;5050205;28;20032;-77
2023/01/11 06:38:34;;;;;;;14.13;9.15;;;;;;;0.87;100.00;99688.19;5050644;28;20048;-77
2023/01/11 06:41:02;;;;;;;14.50;10.82;;;;;;;0.99;100.00;99688.09;5050229;28;20056;-77
2023/01/11 06:43:28;;;;;;;16.17;10.35;;;;;;;1.00;100.00;99688.94;5051783;28;20021;-77
2023/01/11 06:45:54;;;;;;;15.75;10.13;;;;;;;0.99;100.00;99690.66;5051777;28;20422;-77
2023/01/11 06:48:21;;;;;;;14.18;9.68;;;;;;;0.91;100.00;99668.50;5051532;28;20100;-77
2023/01/11 06:50:52;;;;;;;15.57;9.50;;;;;;;0.95;100.00;99672.75;5051689;28;20029;-77
2023/01/11 06:53:18;;;;;;;18.10;9.25;;;;;;;0.97;100.00;99681.28;5051396;28;20017;-77
2023/01/11 06:55:44;;;;;;;17.20;9.15;;;;;;;0.99;100.00;99692.38;5037402;28;20029;-77
2023/01/11 06:58:10;;;;;;;15.32;9.13;;;;;;;1.04;100.00;99687.22;5040400;28;20145;-77
2023/01/11 07:00:35;;;;;;;14.13;9.45;;;;;;;0.99;100.00;99688.09;5042105;28;20029;-77
2023/01/11 07:03:03;;;;;;;17.35;8.68;;;;;;;1.05;100.00;99688.91;5039162;28;20511;-77
2023/01/11 07:05:28;;;;;;;12.55;8.35;;;;;;;1.07;100.00;99693.16;5040955;28;20036;-77
2023/01/11 07:07:54;;;;;;;13.85;7.80;;;;;;;1.15;100.00;99696.53;5033888;28;20032;-77
2023/01/11 07:10:19;;;;;;;13.38;7.57;;;;;;;1.17;100.00;99692.22;5031204;28;20048;-77
2023/01/11 07:12:44;;;;;;;18.08;7.65;;;;;;;1.16;100.00;99679.41;5031528;28;20017;-77
2023/01/11 07:15:10;;;;;;;14.52;8.00;;;;;;;1.29;100.00;99704.09;5045118;28;20155;-77
2023/01/11 07:17:36;;;;;;;12.60;8.00;;;;;;;1.31;100.00;99702.41;5051241;28;20049;-77
2023/01/11 07:20:02;;;;;;;10.50;7.13;;;;;;;1.41;100.00;99698.03;5049651;28;20107;-77
2023/01/11 07:22:27;;;;;;;13.48;7.53;;;;;;;1.44;100.00;99692.88;5051580;28;20044;-77
2023/01/11 07:24:52;;;;;;;13.85;8.52;;;;;;;1.48;100.00;99702.25;5051442;28;20395;-77
2023/01/11 07:27:21;;;;;;;16.05;7.90;;;;;;;1.49;100.00;99699.66;5051241;28;20037;-77
2023/01/11 07:29:46;;;;;;;14.98;8.02;;;;;;;1.48;100.00;99704.81;5051307;28;20033;-77
2023/01/11 07:32:12;;;;;;;12.93;7.93;;;;;;;1.53;100.00;99705.63;5051081;28;20023;-77
2023/01/11 07:34:37;;;;;;;11.85;7.20;;;;;;;1.64;100.00;99713.22;5051264;28;20025;-77
2023/01/11 07:37:03;;;;;;;12.77;6.55;;;;;;;1.72;100.00;99708.84;5050911;28;20021;-77
2023/01/11 07:39:28;;;;;;;13.10;8.10;;;;;;;1.74;100.00;99684.88;5051214;28;20021;-77
2023/01/11 07:44:37;;;;;;;14.45;7.03;;;;;;;2.01;100.00;99698.28;5054766;28;20060;-77
2023/01/11 07:47:03;;;;;;;21.02;9.63;;;;;;;2.05;100.00;99683.69;5054695;28;20056;-77
2023/01/11 07:49:28;;;;;;;16.40;7.70;;;;;;;2.30;99.01;99686.81;5054714;28;20041;-77
2023/01/11 07:51:53;;;;;;;30.33;10.70;;;;;;;2.50;98.89;99688.25;5054854;28;20032;-77
2023/01/11 07:54:19;;;;;;;84.25;24.75;;;;;;;2.68;98.11;99687.16;5054307;28;20367;-77
2023/01/11 07:56:44;;;;;;;20.27;9.32;;;;;;;2.78;96.29;99672.44;5054651;28;20432;-77
2023/01/11 07:59:10;;;;;;;29.45;11.80;;;;;;;3.00;95.42;99671.25;5054627;28;20074;-77
2023/01/11 08:01:35;;;;;;;22.48;9.35;;;;;;;3.22;93.75;99682.06;5054316;28;20024;-77
2023/01/11 08:04:01;;;;;;;31.45;11.63;;;;;;;3.31;92.90;99667.34;5054431;28;20090;-77
2023/01/11 08:06:26;;;;;;;15.35;7.75;;;;;;;3.44;91.48;99659.38;5054599;28;20345;-77
2023/01/11 08:08:52;;;;;;;14.40;6.28;;;;;;;3.53;91.48;99662.66;5054541;28;20021;-77
2023/01/11 08:16:45;;;;;;;11.55;6.65;;;;;;;3.78;90.46;99668.22;5054131;28;20036;-77
2023/01/11 08:19:10;;;;;;;13.57;5.75;;;;;;;3.93;89.77;99670.50;5054069;28;20474;-77
2023/01/11 08:21:35;;;;;;;12.02;6.28;;;;;;;3.86;89.32;99667.19;5054080;28;20020;-78
2023/01/11 08:24:01;;;;;;;7.85;5.13;;;;;;;3.69;88.46;99644.31;5054246;28;20371;-77
2023/01/11 08:26:26;;;;;;;10.73;5.00;;;;;;;3.60;89.00;99656.53;5054233;28;20029;-77
2023/01/11 08:28:53;;;;;;;13.13;6.07;;;;;;;3.70;89.08;99673.50;5053845;28;20060;-77
2023/01/11 08:31:19;;;;;;;8.88;5.13;;;;;;;3.72;89.02;99664.88;5053841;28;20033;-77
2023/01/11 08:33:45;;;;;;;8.88;4.80;;;;;;;3.87;88.68;99668.03;5053939;28;20031;-77
2023/01/11 08:36:11;;;;;;;13.50;6.38;;;;;;;3.96;88.63;99680.75;5053675;28;20017;-77
2023/01/11 08:38:37;;;;;;;12.05;5.63;;;;;;;4.04;88.38;99678.88;5053761;28;20063;-77
2023/01/11 08:41:09;;;;;;;12.30;5.95;;;;;;;4.00;87.30;99665.22;5053615;28;20457;-77
2023/01/11 08:43:41;;;;;;;10.15;5.72;;;;;;;4.09;88.21;99674.50;5053895;28;20116;-77
2023/01/11 08:46:08;;;;;;;10.38;5.07;;;;;;;3.99;87.79;99668.66;5053583;28;20203;-77
2023/01/11 08:48:33;;;;;;;10.07;6.10;;;;;;;3.85;88.32;99665.50;5053938;28;20099;-77
2023/01/11 08:50:59;;;;;;;10.32;5.30;;;;;;;3.82;88.41;99670.69;5053592;28;20417;-77
2023/01/11 08:53:24;;;;;;;9.95;6.00;;;;;;;3.71;88.29;99658.03;5052793;28;20428;-77
2023/01/11 08:55:50;;;;;;;9.02;5.95;;;;;;;3.79;89.09;99675.91;5052462;28;20025;-77
2023/01/11 08:58:16;;;;;;;8.30;4.88;;;;;;;3.76;88.08;99668.25;5053094;28;20022;-77
2023/01/11 09:00:42;;;;;;;11.40;6.93;;;;;;;3.78;88.37;99670.78;5053185;28;20380;-77
2023/01/11 09:03:09;;;;;;;10.55;5.70;;;;;;;3.80;89.22;99679.34;5052995;28;20033;-77
2023/01/11 09:05:35;;;;;;;9.63;4.75;;;;;;;3.68;88.88;99659.81;5053241;28;20051;-77
2023/01/11 09:08:00;;;;;;;10.90;5.53;;;;;;;3.81;89.43;99674.16;5053165;28;20025;-77
2023/01/11 09:10:26;;;;;;;10.20;4.45;;;;;;;3.82;89.97;99670.69;5052933;28;20384;-77
2023/01/11 09:12:54;;;;;;;8.90;4.88;;;;;;;3.87;89.61;99661.16;5053298;28;20440;-77
2023/01/11 09:15:20;;;;;;;13.07;5.22;;;;;;;3.88;89.11;99657.72;5053287;28;20028;-77
2023/01/11 09:17:46;;;;;;;12.27;5.50;;;;;;;3.94;88.24;99657.59;5053153;28;20021;-77
2023/01/11 09:20:11;;;;;;;11.50;5.57;;;;;;;3.97;87.78;99647.22;5052857;28;20033;-77
2023/01/11 09:22:37;;;;;;;10.45;5.57;;;;;;;4.10;88.17;99652.97;5052951;28;20068;-78
2023/01/11 09:25:03;;;;;;;10.63;5.35;;;;;;;4.11;87.49;99649.53;5053276;28;20061;-77
2023/01/11 09:27:28;;;;;;;11.88;5.57;;;;;;;4.11;87.84;99636.63;5053013;28;20409;-77
2023/01/11 09:29:53;;;;;;;12.57;6.20;;;;;;;4.24;87.87;99650.13;5053016;28;20021;-77
2023/01/11 09:32:19;;;;;;;12.65;5.72;;;;;;;4.28;87.40;99632.84;5052808;28;20025;-77
2023/01/11 09:34:46;;;;;;;8.20;5.50;;;;;;;4.32;87.46;99634.50;5052710;28;20078;-77
2023/01/11 09:37:11;;;;;;;16.35;7.18;;;;;;;4.26;86.84;99625.16;5052355;28;20410;-77
2023/01/11 09:39:37;;;;;;;10.00;5.32;;;;;;;4.19;86.87;99603.81;5052497;28;20103;-77
2023/01/11 09:42:38;;;;;;;10.50;6.20;;;;;;;4.23;87.21;99609.75;5052509;28;20044;-77
2023/01/11 09:45:09;;;;;;;8.32;5.47;;;;;;;4.19;88.08;99608.13;5052580;28;20075;-77
2023/01/11 09:47:47;;;;;;;12.90;6.13;;;;;;;4.15;87.60;99609.91;5052455;28;20421;-77
2023/01/11 09:50:19;;;;;;;13.05;5.68;;;;;;;4.14;88.40;99615.09;5052187;28;20082;-77
2023/01/11 09:52:51;;;;;;;13.10;6.57;;;;;;;4.14;88.31;99612.53;5052480;28;20337;-77
2023/01/11 09:55:21;;;;;;;14.20;6.43;;;;;;;4.11;88.28;99607.44;5052242;28;20047;-77
2023/01/11 09:58:02;;;;;;;16.63;7.18;;;;;;;4.21;89.08;99616.66;5052330;28;20028;-77
2023/01/11 10:00:51;;;;;;;8.32;5.05;;;;;;;4.24;88.59;99607.13;5051914;28;20023;-78
2023/01/11 10:03:26;;;;;;;11.80;6.13;;;;;;;4.24;89.07;99595.97;5052063;28;20036;-77
2023/01/11 10:06:12;;;;;;;13.75;5.45;;;;;;;4.32;88.76;99603.56;5051871;28;20020;-77
2023/01/11 10:08:48;;;;;;;14.32;6.00;;;;;;;4.36;88.35;99606.03;5052106;28;20128;-78
2023/01/11 10:11:23;;;;;;;15.18;5.88;;;;;;;4.42;87.92;99602.44;5052055;28;20464;-77
2023/01/11 10:14:13;;;;;;;11.38;5.82;;;;;;;4.48;88.24;99589.44;5052175;28;20056;-77
2023/01/11 10:16:44;;;;;;;10.23;4.95;;;;;;;4.48;88.16;99592.84;5052108;28;20472;-77
2023/01/11 10:19:25;;;;;;;19.42;8.38;;;;;;;4.48;88.83;99589.44;5051920;28;20028;-77
2023/01/11 10:21:59;;;;;;;18.60;7.78;;;;;;;4.43;88.49;99586.13;5051920;28;20021;-78
2023/01/11 10:24:36;;;;;;;15.63;6.45;;;;;;;4.57;88.28;99585.78;5051816;28;20033;-77
2023/01/11 10:27:04;;;;;;;13.73;6.15;;;;;;;4.67;87.76;99572.63;5051949;28;20372;-77
2023/01/11 10:29:50;;;;;;;11.50;5.72;;;;;;;4.77;87.41;99575.84;5051611;28;20021;-77
2023/01/11 10:35:57;;;;;;;12.90;6.35;;;;;;;4.81;87.70;99569.75;5029417;28;20539;-77
2023/01/11 10:38:45;;;;;;;8.40;4.65;;;;;;;4.72;86.89;99557.91;5029385;28;20024;-77
2023/01/11 10:41:37;;;;;;;8.82;4.50;;;;;;;4.77;86.97;99554.38;5028939;28;20481;-78
2023/01/11 10:44:09;;;;;;;8.95;4.75;;;;;;;4.82;87.27;99539.63;5029407;28;20369;-78
2023/01/11 10:46:47;;;;;;;8.50;4.97;;;;;;;4.81;86.79;99530.19;5029337;28;20540;-78
2023/01/11 10:49:34;;;;;;;12.70;6.18;;;;;;;4.89;87.00;99536.84;5029125;28;20065;-77
2023/01/11 10:52:13;;;;;;;14.63;7.25;;;;;;;4.99;86.72;99527.97;5029357;28;20111;-77
2023/01/11 10:54:44;;;;;;;11.82;6.45;;;;;;;5.05;86.75;99523.53;5029352;28;20029;-77
2023/01/11 10:57:21;;;;;;;10.10;5.65;;;;;;;4.96;86.51;99515.13;5029011;28;20025;-77
2023/01/11 10:59:55;;;;;;;13.38;6.95;;;;;;;5.13;86.22;99524.19;5029307;28;20041;-77
2023/01/11 11:02:33;;;;;;;11.52;6.00;;;;;;;5.17;86.47;99507.72;5028999;28;20025;-78
2023/01/11 11:05:25;;;;;;;13.48;5.60;;;;;;;5.17;86.66;99494.81;5029152;28;20049;-77
2023/01/11 11:08:12;;;;;;;9.73;5.63;;;;;;;5.27;86.14;99491.13;5029289;28;20578;-77
2023/01/11 11:11:12;;;;;;;11.10;5.88;;;;;;;5.28;86.07;99502.28;5029367;28;20067;-78
2023/01/11 11:13:50;;;;;;;11.73;5.50;;;;;;;5.23;85.83;99499.81;5009451;28;20030;-77
2023/01/11 11:16:38;;;;;;;15.30;6.43;;;;;;;5.28;86.23;99490.22;5009224;28;20076;-78
2023/01/11 11:19:03;;;;;;;10.30;5.60;;;;;;;5.24;86.31;99486.88;4954006;29;20039;-77
2023/01/11 11:21:34;;;;;;;10.98;5.88;;;;;;;5.07;86.49;99452.91;4954247;29;20046;-78
2023/01/11 11:24:03;;;;;;;7.85;4.70;;;;;;;5.20;86.21;99456.84;4954750;29;20135;-77
2023/01/11 11:26:37;;;;;;;11.40;5.72;;;;;;;5.22;86.26;99454.22;4954422;29;20106;-77
2023/01/11 11:29:07;;;;;;;8.55;4.95;;;;;;;5.14;86.48;99446.72;4954604;29;20101;-78
2023/01/11 11:31:39;;;;;;;12.07;6.38;;;;;;;5.33;86.76;99464.25;4954678;29;20093;-78
2023/01/11 11:34:07;;;;;;;12.70;5.93;;;;;;;5.32;85.87;99454.81;4954458;29;20316;-77
2023/01/11 11:36:43;;;;;;;13.05;6.60;;;;;;;5.34;86.54;99459.03;4954238;29;20037;-77
2023/01/11 11:39:18;;;;;;;12.35;6.60;;;;;;;5.42;86.95;99462.25;4954415;29;20027;-78
2023/01/11 11:41:51;;;;;;;15.88;6.35;;;;;;;5.57;86.22;99452.38;4954193;29;20368;-78
2023/01/11 11:44:23;;;;;;;10.00;5.50;;;;;;;5.52;85.92;99434.44;4954205;29;20035;-78
2023/01/11 11:47:14;;;;;;;9.98;5.72;;;;;;;5.59;86.46;99440.25;4964091;28;20069;-78
2023/01/11 11:49:40;;;;;;;11.50;6.60;;;;;;;5.54;86.19;99430.06;5012098;28;20473;-78
2023/01/11 11:52:11;;;;;;;10.95;5.70;;;;;;;5.52;86.50;99431.84;5012373;28;20420;-78
2023/01/11 11:54:51;;;;;;;14.40;5.70;;;;;;;5.47;86.78;99428.53;5012448;28;20029;-78
2023/01/11 11:57:31;;;;;;;12.77;7.60;;;;;;;5.55;86.95;99424.00;5052854;28;20477;-77
2023/01/11 12:00:24;;;;;;;12.48;5.30;;;;;;;5.53;86.40;99422.38;5037905;28;20268;-77
2023/01/11 12:02:56;;;;;;;12.82;5.68;;;;;;;5.52;86.50;99413.78;5034427;28;20381;-77
2023/01/11 12:05:22;;;;;;;11.80;5.05;;;;;;;5.55;86.01;99405.91;5034490;28;20147;-77
2023/01/11 12:07:49;;;;;;;16.20;6.07;;;;;;;5.52;86.68;99408.59;5034379;28;20109;-77
2023/01/11 12:10:18;;;;;;;11.80;6.32;;;;;;;5.51;87.12;99419.81;5034189;28;20079;-77